sensor_id;sensor_type;location;lat;lon;timestamp;pressure;altitude;pressure_sealevel;temperature
19040;BMP180;9652;49.014;12.052;2024-03-23T00:54:25;97169.00;;;13.20
19040;BMP180;9652;49.014;12.052;2024-03-23T00:56:51;97130.00;;;13.20
19040;BMP180;9652;49.014;12.052;2024-03-23T00:59:18;97144.00;;;13.10
19040;BMP180;9652;49.014;12.052;2024-03-23T01:01:45;97150.00;;;13.10
19040;BMP180;9652;49.014;12.052;2024-03-23T01:04:12;97148.00;;;13.00
19040;BMP180;9652;49.014;12.052;2024-03-23T01:06:38;97086.00;;;13.00
19040;BMP180;9652;49.014;12.052;2024-03-23T01:09:05;97140.00;;;12.90
19040;BMP180;9652;49.014;12.052;2024-03-23T01:11:33;97145.00;;;12.80
19040;BMP180;9652;49.014;12.052;2024-03-23T01:14:00;97140.00;;;12.80
19040;BMP180;9652;49.014;12.052;2024-03-23T01:16:26;97140.00;;;12.80
19040;BMP180;9652;49.014;12.052;2024-03-23T01:18:54;97119.00;;;12.70
19040;BMP180;9652;49.014;12.052;2024-03-23T01:21:21;97131.00;;;12.70
19040;BMP180;9652;49.014;12.052;2024-03-23T01:23:47;97139.00;;;12.70
19040;BMP180;9652;49.014;12.052;2024-03-23T01:26:14;97124.00;;;12.60
19040;BMP180;9652;49.014;12.052;2024-03-23T01:28:42;97098.00;;;12.60
19040;BMP180;9652;49.014;12.052;2024-03-23T01:31:09;97115.00;;;12.50
19040;BMP180;9652;49.014;12.052;2024-03-23T01:33:35;97096.00;;;12.50
19040;BMP180;9652;49.014;12.052;2024-03-23T01:36:03;97106.00;;;12.40
19040;BMP180;9652;49.014;12.052;2024-03-23T01:38:30;97106.00;;;12.40
19040;BMP180;9652;49.014;12.052;2024-03-23T01:40:57;97092.00;;;12.30
19040;BMP180;9652;49.014;12.052;2024-03-23T01:43:23;97100.00;;;12.30
19040;BMP180;9652;49.014;12.052;2024-03-23T01:45:52;97092.00;;;12.30
19040;BMP180;9652;49.014;12.052;2024-03-23T01:48:19;97087.00;;;12.30
19040;BMP180;9652;49.014;12.052;2024-03-23T01:50:47;97043.00;;;12.20
19040;BMP180;9652;49.014;12.052;2024-03-23T01:53:15;97081.00;;;12.20
19040;BMP180;9652;49.014;12.052;2024-03-23T01:55:43;97067.00;;;12.20
19040;BMP180;9652;49.014;12.052;2024-03-23T01:58:09;97068.00;;;12.10
19040;BMP180;9652;49.014;12.052;2024-03-23T02:00:36;97064.00;;;12.10
19040;BMP180;9652;49.014;12.052;2024-03-23T02:03:22;97065.00;;;12.10
19040;BMP180;9652;49.014;12.052;2024-03-23T02:05:50;97056.00;;;12.00
19040;BMP180;9652;49.014;12.052;2024-03-23T02:08:18;97051.00;;;12.00
19040;BMP180;9652;49.014;12.052;2024-03-23T02:10:46;97043.00;;;12.00
19040;BMP180;9652;49.014;12.052;2024-03-23T02:13:14;97032.00;;;12.00
19040;BMP180;9652;49.014;12.052;2024-03-23T02:15:41;97032.00;;;11.90
19040;BMP180;9652;49.014;12.052;2024-03-23T02:18:09;97023.00;;;11.90
19040;BMP180;9652;49.014;12.052;2024-03-23T02:20:36;97037.00;;;11.90
19040;BMP180;9652;49.014;12.052;2024-03-23T02:23:04;97034.00;;;11.80
19040;BMP180;9652;49.014;12.052;2024-03-23T02:25:32;97014.00;;;11.80
19040;BMP180;9652;49.014;12.052;2024-03-23T02:27:59;97030.00;;;11.70
19040;BMP180;9652;49.014;12.052;2024-03-23T02:30:26;97027.00;;;11.70
19040;BMP180;9652;49.014;12.052;2024-03-23T02:32:52;97026.00;;;11.70
19040;BMP180;9652;49.014;12.052;2024-03-23T02:35:19;97021.00;;;11.70
19040;BMP180;9652;49.014;12.052;2024-03-23T02:37:46;97006.00;;;11.60
19040;BMP180;9652;49.014;12.052;2024-03-23T02:40:16;97018.00;;;11.60
19040;BMP180;9652;49.014;12.052;2024-03-23T02:42:42;96990.00;;;11.50
19040;BMP180;9652;49.014;12.052;2024-03-23T02:45:09;97011.00;;;11.50
19040;BMP180;9652;49.014;12.052;2024-03-23T02:47:35;97011.00;;;11.50
19040;BMP180;9652;49.014;12.052;2024-03-23T02:50:03;96984.00;;;11.40
19040;BMP180;9652;49.014;12.052;2024-03-23T02:52:30;96998.00;;;11.40
19040;BMP180;9652;49.014;12.052;2024-03-23T02:54:57;96992.00;;;11.40
19040;BMP180;9652;49.014;12.052;2024-03-23T02:57:25;96984.00;;;11.40
19040;BMP180;9652;49.014;12.052;2024-03-23T02:59:52;97007.00;;;11.30
19040;BMP180;9652;49.014;12.052;2024-03-23T03:02:18;97006.00;;;11.30
19040;BMP180;9652;49.014;12.052;2024-03-23T03:04:45;97004.00;;;11.30
19040;BMP180;9652;49.014;12.052;2024-03-23T03:07:11;96999.00;;;11.30
19040;BMP180;9652;49.014;12.052;2024-03-23T03:09:38;97000.00;;;11.30
19040;BMP180;9652;49.014;12.052;2024-03-23T03:12:05;96986.00;;;11.30
19040;BMP180;9652;49.014;12.052;2024-03-23T03:14:34;96991.00;;;11.40
19040;BMP180;9652;49.014;12.052;2024-03-23T03:17:00;96980.00;;;11.40
19040;BMP180;9652;49.014;12.052;2024-03-23T03:19:27;96966.00;;;11.40
19040;BMP180;9652;49.014;12.052;2024-03-23T03:21:53;96967.00;;;11.40
19040;BMP180;9652;49.014;12.052;2024-03-23T03:24:20;96957.00;;;11.40
19040;BMP180;9652;49.014;12.052;2024-03-23T03:26:46;96960.00;;;11.40
19040;BMP180;9652;49.014;12.052;2024-03-23T03:29:15;96958.00;;;11.40
19040;BMP180;9652;49.014;12.052;2024-03-23T03:31:43;96938.00;;;11.40
19040;BMP180;9652;49.014;12.052;2024-03-23T03:34:10;96958.00;;;11.40
19040;BMP180;9652;49.014;12.052;2024-03-23T03:36:36;96944.00;;;11.50
19040;BMP180;9652;49.014;12.052;2024-03-23T03:39:03;96952.00;;;11.50
19040;BMP180;9652;49.014;12.052;2024-03-23T03:41:31;96945.00;;;11.50
19040;BMP180;9652;49.014;12.052;2024-03-23T03:43:58;96939.00;;;11.60
19040;BMP180;9652;49.014;12.052;2024-03-23T03:46:28;96915.00;;;11.60
19040;BMP180;9652;49.014;12.052;2024-03-23T03:48:56;96930.00;;;11.60
19040;BMP180;9652;49.014;12.052;2024-03-23T03:51:22;96932.00;;;11.60
19040;BMP180;9652;49.014;12.052;2024-03-23T03:53:49;96928.00;;;11.60
19040;BMP180;9652;49.014;12.052;2024-03-23T03:56:15;96917.00;;;11.70
19040;BMP180;9652;49.014;12.052;2024-03-23T03:58:43;96932.00;;;11.70
19040;BMP180;9652;49.014;12.052;2024-03-23T04:01:09;96928.00;;;11.70
19040;BMP180;9652;49.014;12.052;2024-03-23T04:03:36;96914.00;;;11.80
19040;BMP180;9652;49.014;12.052;2024-03-23T04:06:04;96915.00;;;11.80
19040;BMP180;9652;49.014;12.052;2024-03-23T04:08:31;96912.00;;;11.90
19040;BMP180;9652;49.014;12.052;2024-03-23T04:10:57;96895.00;;;11.90
19040;BMP180;9652;49.014;12.052;2024-03-23T04:13:24;96898.00;;;11.90
19040;BMP180;9652;49.014;12.052;2024-03-23T04:15:54;96891.00;;;12.00
19040;BMP180;9652;49.014;12.052;2024-03-23T04:18:21;96902.00;;;12.00
19040;BMP180;9652;49.014;12.052;2024-03-23T04:20:48;96892.00;;;12.00
19040;BMP180;9652;49.014;12.052;2024-03-23T04:23:16;96886.00;;;12.00
19040;BMP180;9652;49.014;12.052;2024-03-23T04:25:43;96883.00;;;12.00
19040;BMP180;9652;49.014;12.052;2024-03-23T04:28:10;96885.00;;;12.00
19040;BMP180;9652;49.014;12.052;2024-03-23T04:30:36;96882.00;;;12.00
19040;BMP180;9652;49.014;12.052;2024-03-23T04:33:04;96872.00;;;12.00
19040;BMP180;9652;49.014;12.052;2024-03-23T04:35:30;96858.00;;;12.00
19040;BMP180;9652;49.014;12.052;2024-03-23T04:37:58;96854.00;;;12.00
19040;BMP180;9652;49.014;12.052;2024-03-23T04:40:27;96842.00;;;12.00
19040;BMP180;9652;49.014;12.052;2024-03-23T04:42:54;96864.00;;;12.00
19040;BMP180;9652;49.014;12.052;2024-03-23T04:45:21;96865.00;;;12.00
19040;BMP180;9652;49.014;12.052;2024-03-23T04:47:48;96850.00;;;12.00
19040;BMP180;9652;49.014;12.052;2024-03-23T04:50:16;96856.00;;;12.00
19040;BMP180;9652;49.014;12.052;2024-03-23T04:52:44;96853.00;;;12.10
19040;BMP180;9652;49.014;12.052;2024-03-23T04:55:11;96824.00;;;12.10
19040;BMP180;9652;49.014;12.052;2024-03-23T04:57:41;96848.00;;;12.10
19040;BMP180;9652;49.014;12.052;2024-03-23T05:00:08;96839.00;;;12.10
19040;BMP180;9652;49.014;12.052;2024-03-23T05:02:44;96827.00;;;12.10
19040;BMP180;9652;49.014;12.052;2024-03-23T05:05:12;96828.00;;;12.10
19040;BMP180;9652;49.014;12.052;2024-03-23T05:07:38;96835.00;;;12.20
19040;BMP180;9652;49.014;12.052;2024-03-23T05:10:06;96821.00;;;12.20
19040;BMP180;9652;49.014;12.052;2024-03-23T05:12:36;96806.00;;;12.20
19040;BMP180;9652;49.014;12.052;2024-03-23T05:15:05;96830.00;;;12.20
19040;BMP180;9652;49.014;12.052;2024-03-23T05:17:32;96819.00;;;12.20
19040;BMP180;9652;49.014;12.052;2024-03-23T05:19:59;96811.00;;;12.30
19040;BMP180;9652;49.014;12.052;2024-03-23T05:22:25;96817.00;;;12.30
19040;BMP180;9652;49.014;12.052;2024-03-23T05:24:53;96811.00;;;12.30
19040;BMP180;9652;49.014;12.052;2024-03-23T05:27:19;96803.00;;;12.30
19040;BMP180;9652;49.014;12.052;2024-03-23T05:29:46;96758.00;;;12.40
19040;BMP180;9652;49.014;12.052;2024-03-23T05:32:14;96815.00;;;12.40
19040;BMP180;9652;49.014;12.052;2024-03-23T05:34:41;96809.00;;;12.50
19040;BMP180;9652;49.014;12.052;2024-03-23T05:37:07;96804.00;;;12.50
19040;BMP180;9652;49.014;12.052;2024-03-23T05:39:34;96778.00;;;12.50
19040;BMP180;9652;49.014;12.052;2024-03-23T05:42:00;96807.00;;;12.50
19040;BMP180;9652;49.014;12.052;2024-03-23T05:44:28;96805.00;;;12.50
19040;BMP180;9652;49.014;12.052;2024-03-23T05:46:54;96793.00;;;12.50
19040;BMP180;9652;49.014;12.052;2024-03-23T05:49:23;96774.00;;;12.50
19040;BMP180;9652;49.014;12.052;2024-03-23T05:51:49;96778.00;;;12.40
19040;BMP180;9652;49.014;12.052;2024-03-23T05:54:16;96779.00;;;12.40
19040;BMP180;9652;49.014;12.052;2024-03-23T05:56:42;96786.00;;;12.40
19040;BMP180;9652;49.014;12.052;2024-03-23T05:59:09;96773.00;;;12.40
19040;BMP180;9652;49.014;12.052;2024-03-23T06:01:35;96771.00;;;12.40
19040;BMP180;9652;49.014;12.052;2024-03-23T06:04:02;96774.00;;;12.30
19040;BMP180;9652;49.014;12.052;2024-03-23T06:06:30;96764.00;;;12.30
19040;BMP180;9652;49.014;12.052;2024-03-23T06:08:57;96769.00;;;12.30
19040;BMP180;9652;49.014;12.052;2024-03-23T06:11:23;96762.00;;;12.30
19040;BMP180;9652;49.014;12.052;2024-03-23T06:13:52;96743.00;;;12.30
19040;BMP180;9652;49.014;12.052;2024-03-23T06:16:18;96741.00;;;12.20
19040;BMP180;9652;49.014;12.052;2024-03-23T06:18:49;96740.00;;;12.30
19040;BMP180;9652;49.014;12.052;2024-03-23T06:21:15;96731.00;;;12.30
19040;BMP180;9652;49.014;12.052;2024-03-23T06:23:44;96700.00;;;12.30
19040;BMP180;9652;49.014;12.052;2024-03-23T06:26:17;96723.00;;;12.30
19040;BMP180;9652;49.014;12.052;2024-03-23T06:28:44;96713.00;;;12.40
19040;BMP180;9652;49.014;12.052;2024-03-23T06:31:10;96705.00;;;12.40
19040;BMP180;9652;49.014;12.052;2024-03-23T06:33:37;96712.00;;;12.40
19040;BMP180;9652;49.014;12.052;2024-03-23T06:36:05;96707.00;;;12.50
19040;BMP180;9652;49.014;12.052;2024-03-23T06:38:32;96708.00;;;12.50
19040;BMP180;9652;49.014;12.052;2024-03-23T06:41:02;96702.00;;;12.50
19040;BMP180;9652;49.014;12.052;2024-03-23T06:43:29;96699.00;;;12.60
19040;BMP180;9652;49.014;12.052;2024-03-23T06:45:56;96694.00;;;12.60
19040;BMP180;9652;49.014;12.052;2024-03-23T06:48:23;96695.00;;;12.70
19040;BMP180;9652;49.014;12.052;2024-03-23T06:50:49;96708.00;;;12.80
19040;BMP180;9652;49.014;12.052;2024-03-23T06:53:16;96709.00;;;12.90
19040;BMP180;9652;49.014;12.052;2024-03-23T06:55:50;96708.00;;;13.00
19040;BMP180;9652;49.014;12.052;2024-03-23T06:58:19;96686.00;;;13.10
19040;BMP180;9652;49.014;12.052;2024-03-23T07:00:45;96667.00;;;13.20
19040;BMP180;9652;49.014;12.052;2024-03-23T07:03:13;96701.00;;;13.40
19040;BMP180;9652;49.014;12.052;2024-03-23T07:05:39;96712.00;;;13.50
19040;BMP180;9652;49.014;12.052;2024-03-23T07:08:06;96711.00;;;13.70
19040;BMP180;9652;49.014;12.052;2024-03-23T07:10:32;96702.00;;;13.80
19040;BMP180;9652;49.014;12.052;2024-03-23T07:13:00;96711.00;;;13.90
19040;BMP180;9652;49.014;12.052;2024-03-23T07:15:27;96703.00;;;14.00
19040;BMP180;9652;49.014;12.052;2024-03-23T07:17:54;96699.00;;;14.10
19040;BMP180;9652;49.014;12.052;2024-03-23T07:20:20;96714.00;;;14.20
19040;BMP180;9652;49.014;12.052;2024-03-23T07:22:47;96717.00;;;14.30
19040;BMP180;9652;49.014;12.052;2024-03-23T07:25:14;96689.00;;;14.40
19040;BMP180;9652;49.014;12.052;2024-03-23T07:27:41;96713.00;;;14.50
19040;BMP180;9652;49.014;12.052;2024-03-23T07:30:08;96727.00;;;14.60
19040;BMP180;9652;49.014;12.052;2024-03-23T07:32:36;96734.00;;;14.40
19040;BMP180;9652;49.014;12.052;2024-03-23T07:35:04;96721.00;;;14.70
19040;BMP180;9652;49.014;12.052;2024-03-23T07:37:31;96713.00;;;14.70
19040;BMP180;9652;49.014;12.052;2024-03-23T07:39:57;96760.00;;;14.70
19040;BMP180;9652;49.014;12.052;2024-03-23T07:42:25;96759.00;;;14.70
19040;BMP180;9652;49.014;12.052;2024-03-23T07:44:52;96777.00;;;14.60
19040;BMP180;9652;49.014;12.052;2024-03-23T07:47:22;96775.00;;;14.60
19040;BMP180;9652;49.014;12.052;2024-03-23T07:49:50;96725.00;;;14.50
19040;BMP180;9652;49.014;12.052;2024-03-23T07:52:17;96810.00;;;14.50
19040;BMP180;9652;49.014;12.052;2024-03-23T07:54:43;96833.00;;;14.40
19040;BMP180;9652;49.014;12.052;2024-03-23T07:57:10;96809.00;;;14.40
19040;BMP180;9652;49.014;12.052;2024-03-23T07:59:36;96836.00;;;14.30
19040;BMP180;9652;49.014;12.052;2024-03-23T08:02:04;96767.00;;;14.10
19040;BMP180;9652;49.014;12.052;2024-03-23T08:04:31;96881.00;;;14.00
19040;BMP180;9652;49.014;12.052;2024-03-23T08:06:59;96821.00;;;13.90
19040;BMP180;9652;49.014;12.052;2024-03-23T08:09:25;96841.00;;;13.80
19040;BMP180;9652;49.014;12.052;2024-03-23T08:11:52;96843.00;;;13.70
19040;BMP180;9652;49.014;12.052;2024-03-23T08:14:18;96826.00;;;13.60
19040;BMP180;9652;49.014;12.052;2024-03-23T08:16:46;96848.00;;;13.60
19040;BMP180;9652;49.014;12.052;2024-03-23T08:19:15;96849.00;;;13.50
19040;BMP180;9652;49.014;12.052;2024-03-23T08:21:42;96850.00;;;13.40
19040;BMP180;9652;49.014;12.052;2024-03-23T08:24:09;96859.00;;;13.40
19040;BMP180;9652;49.014;12.052;2024-03-23T08:26:37;96839.00;;;13.30
19040;BMP180;9652;49.014;12.052;2024-03-23T08:29:03;96810.00;;;13.30
19040;BMP180;9652;49.014;12.052;2024-03-23T08:31:31;96821.00;;;13.30
19040;BMP180;9652;49.014;12.052;2024-03-23T08:33:57;96853.00;;;13.20
19040;BMP180;9652;49.014;12.052;2024-03-23T08:36:24;96829.00;;;13.20
19040;BMP180;9652;49.014;12.052;2024-03-23T08:38:50;96841.00;;;13.20
19040;BMP180;9652;49.014;12.052;2024-03-23T08:41:21;96867.00;;;13.10
19040;BMP180;9652;49.014;12.052;2024-03-23T08:43:47;96862.00;;;13.10
19040;BMP180;9652;49.014;12.052;2024-03-23T08:46:15;96870.00;;;13.10
19040;BMP180;9652;49.014;12.052;2024-03-23T08:48:43;96863.00;;;13.20
19040;BMP180;9652;49.014;12.052;2024-03-23T08:51:12;96866.00;;;13.10
19040;BMP180;9652;49.014;12.052;2024-03-23T08:53:39;96884.00;;;13.20
19040;BMP180;9652;49.014;12.052;2024-03-23T08:56:08;96887.00;;;13.20
19040;BMP180;9652;49.014;12.052;2024-03-23T08:58:37;96870.00;;;13.30
19040;BMP180;9652;49.014;12.052;2024-03-23T09:01:08;96876.00;;;13.30
19040;BMP180;9652;49.014;12.052;2024-03-23T09:03:34;96866.00;;;13.40
19040;BMP180;9652;49.014;12.052;2024-03-23T09:06:06;96863.00;;;13.50
19040;BMP180;9652;49.014;12.052;2024-03-23T09:08:33;96868.00;;;13.60
19040;BMP180;9652;49.014;12.052;2024-03-23T09:11:04;96884.00;;;13.70
19040;BMP180;9652;49.014;12.052;2024-03-23T09:13:32;96891.00;;;13.90
19040;BMP180;9652;49.014;12.052;2024-03-23T09:16:01;96891.00;;;14.00
19040;BMP180;9652;49.014;12.052;2024-03-23T09:18:30;96914.00;;;14.10
19040;BMP180;9652;49.014;12.052;2024-03-23T09:20:57;96916.00;;;14.20
19040;BMP180;9652;49.014;12.052;2024-03-23T09:23:24;96910.00;;;14.30
19040;BMP180;9652;49.014;12.052;2024-03-23T09:25:51;96900.00;;;14.50
19040;BMP180;9652;49.014;12.052;2024-03-23T09:28:17;96928.00;;;14.60
19040;BMP180;9652;49.014;12.052;2024-03-23T09:30:44;96905.00;;;14.70
19040;BMP180;9652;49.014;12.052;2024-03-23T09:33:12;96898.00;;;14.80
19040;BMP180;9652;49.014;12.052;2024-03-23T09:35:41;96878.00;;;15.00
19040;BMP180;9652;49.014;12.052;2024-03-23T09:38:08;96899.00;;;15.10
19040;BMP180;9652;49.014;12.052;2024-03-23T09:40:40;96899.00;;;15.20
19040;BMP180;9652;49.014;12.052;2024-03-23T09:43:07;96831.00;;;15.40
19040;BMP180;9652;49.014;12.052;2024-03-23T09:45:39;96797.00;;;15.50
19040;BMP180;9652;49.014;12.052;2024-03-23T09:48:07;96911.00;;;15.60
19040;BMP180;9652;49.014;12.052;2024-03-23T09:50:37;96896.00;;;15.80
19040;BMP180;9652;49.014;12.052;2024-03-23T09:53:06;96840.00;;;15.90
19040;BMP180;9652;49.014;12.052;2024-03-23T09:55:34;96889.00;;;16.20
19040;BMP180;9652;49.014;12.052;2024-03-23T09:58:01;96901.00;;;16.30
19040;BMP180;9652;49.014;12.052;2024-03-23T10:00:28;96938.00;;;16.50
19040;BMP180;9652;49.014;12.052;2024-03-23T10:02:55;96947.00;;;16.60
19040;BMP180;9652;49.014;12.052;2024-03-23T10:05:24;96934.00;;;16.70
19040;BMP180;9652;49.014;12.052;2024-03-23T10:07:51;96942.00;;;16.70
19040;BMP180;9652;49.014;12.052;2024-03-23T10:10:19;96963.00;;;16.50
19040;BMP180;9652;49.014;12.052;2024-03-23T10:12:48;96953.00;;;16.60
19040;BMP180;9652;49.014;12.052;2024-03-23T10:15:20;96989.00;;;16.50
19040;BMP180;9652;49.014;12.052;2024-03-23T10:17:47;97009.00;;;16.40
19040;BMP180;9652;49.014;12.052;2024-03-23T10:20:19;97034.00;;;15.90
19040;BMP180;9652;49.014;12.052;2024-03-23T10:22:46;97055.00;;;16.20
19040;BMP180;9652;49.014;12.052;2024-03-23T10:25:15;97032.00;;;16.00
19040;BMP180;9652;49.014;12.052;2024-03-23T10:27:41;97048.00;;;15.90
19040;BMP180;9652;49.014;12.052;2024-03-23T10:30:11;97056.00;;;15.90
19040;BMP180;9652;49.014;12.052;2024-03-23T10:32:38;97042.00;;;15.80
19040;BMP180;9652;49.014;12.052;2024-03-23T10:35:16;97061.00;;;15.80
19040;BMP180;9652;49.014;12.052;2024-03-23T10:37:45;97052.00;;;15.80
19040;BMP180;9652;49.014;12.052;2024-03-23T10:40:15;97047.00;;;15.80
19040;BMP180;9652;49.014;12.052;2024-03-23T10:42:41;97064.00;;;15.20
19040;BMP180;9652;49.014;12.052;2024-03-23T10:45:09;97047.00;;;15.80
19040;BMP180;9652;49.014;12.052;2024-03-23T10:47:37;97081.00;;;15.90
19040;BMP180;9652;49.014;12.052;2024-03-23T10:50:05;97077.00;;;15.90
19040;BMP180;9652;49.014;12.052;2024-03-23T10:52:32;97089.00;;;15.80
19040;BMP180;9652;49.014;12.052;2024-03-23T10:55:03;97084.00;;;15.80
19040;BMP180;9652;49.014;12.052;2024-03-23T10:57:41;97091.00;;;15.80
19040;BMP180;9652;49.014;12.052;2024-03-23T11:00:12;97094.00;;;15.80
19040;BMP180;9652;49.014;12.052;2024-03-23T11:02:38;97077.00;;;15.90
19040;BMP180;9652;49.014;12.052;2024-03-23T11:05:29;97081.00;;;15.90
19040;BMP180;9652;49.014;12.052;2024-03-23T11:07:56;97059.00;;;16.00
19040;BMP180;9652;49.014;12.052;2024-03-23T11:10:26;97042.00;;;15.70
19040;BMP180;9652;49.014;12.052;2024-03-23T11:12:54;97028.00;;;16.10
19040;BMP180;9652;49.014;12.052;2024-03-23T11:15:21;97085.00;;;16.00
19040;BMP180;9652;49.014;12.052;2024-03-23T11:18:03;97070.00;;;16.00
19040;BMP180;9652;49.014;12.052;2024-03-23T11:20:34;97066.00;;;16.00
19040;BMP180;9652;49.014;12.052;2024-03-23T11:23:01;96967.00;;;15.90
19040;BMP180;9652;49.014;12.052;2024-03-23T11:25:29;97050.00;;;15.90
19040;BMP180;9652;49.014;12.052;2024-03-23T11:28:09;97079.00;;;15.80
19040;BMP180;9652;49.014;12.052;2024-03-23T11:30:37;97090.00;;;15.80
19040;BMP180;9652;49.014;12.052;2024-03-23T11:33:04;97093.00;;;15.80
19040;BMP180;9652;49.014;12.052;2024-03-23T11:35:34;97104.00;;;15.80
19040;BMP180;9652;49.014;12.052;2024-03-23T11:38:06;97131.00;;;15.90
19040;BMP180;9652;49.014;12.052;2024-03-23T11:40:35;97066.00;;;15.90
19040;BMP180;9652;49.014;12.052;2024-03-23T11:43:04;97132.00;;;16.00
19040;BMP180;9652;49.014;12.052;2024-03-23T11:45:36;97134.00;;;16.00
19040;BMP180;9652;49.014;12.052;2024-03-23T11:48:06;97134.00;;;16.10
19040;BMP180;9652;49.014;12.052;2024-03-23T11:50:36;97152.00;;;16.10
19040;BMP180;9652;49.014;12.052;2024-03-23T11:53:14;97151.00;;;16.20
19040;BMP180;9652;49.014;12.052;2024-03-23T11:55:46;97153.00;;;16.30
19040;BMP180;9652;49.014;12.052;2024-03-23T11:58:15;97165.00;;;16.30
19040;BMP180;9652;49.014;12.052;2024-03-23T12:00:48;97162.00;;;16.40
19040;BMP180;9652;49.014;12.052;2024-03-23T12:03:16;97158.00;;;16.40
19040;BMP180;9652;49.014;12.052;2024-03-23T12:05:49;97148.00;;;16.30
19040;BMP180;9652;49.014;12.052;2024-03-23T12:08:21;97156.00;;;16.20
19040;BMP180;9652;49.014;12.052;2024-03-23T12:10:51;97098.00;;;16.00
19040;BMP180;9652;49.014;12.052;2024-03-23T12:13:21;97087.00;;;16.00
19040;BMP180;9652;49.014;12.052;2024-03-23T12:15:50;97132.00;;;15.90
19040;BMP180;9652;49.014;12.052;2024-03-23T12:18:17;97148.00;;;15.80
19040;BMP180;9652;49.014;12.052;2024-03-23T12:20:44;97146.00;;;15.70
19040;BMP180;9652;49.014;12.052;2024-03-23T12:23:11;97118.00;;;15.70
19040;BMP180;9652;49.014;12.052;2024-03-23T12:25:42;97105.00;;;15.70
19040;BMP180;9652;49.014;12.052;2024-03-23T12:28:08;97131.00;;;15.70
19040;BMP180;9652;49.014;12.052;2024-03-23T12:30:39;97140.00;;;15.70
19040;BMP180;9652;49.014;12.052;2024-03-23T12:33:06;97027.00;;;15.70
19040;BMP180;9652;49.014;12.052;2024-03-23T12:35:34;97149.00;;;15.60
19040;BMP180;9652;49.014;12.052;2024-03-23T12:38:00;97142.00;;;15.50
19040;BMP180;9652;49.014;12.052;2024-03-23T12:40:27;97155.00;;;15.40
19040;BMP180;9652;49.014;12.052;2024-03-23T12:42:53;97126.00;;;15.30
19040;BMP180;9652;49.014;12.052;2024-03-23T12:45:22;97144.00;;;15.20
19040;BMP180;9652;49.014;12.052;2024-03-23T12:47:49;97151.00;;;15.10
19040;BMP180;9652;49.014;12.052;2024-03-23T12:50:18;97162.00;;;15.10
19040;BMP180;9652;49.014;12.052;2024-03-23T12:52:44;97164.00;;;15.00
19040;BMP180;9652;49.014;12.052;2024-03-23T12:55:11;97158.00;;;15.00
19040;BMP180;9652;49.014;12.052;2024-03-23T12:57:37;97153.00;;;14.90
19040;BMP180;9652;49.014;12.052;2024-03-23T13:00:07;97153.00;;;14.90
19040;BMP180;9652;49.014;12.052;2024-03-23T13:02:36;97136.00;;;14.80
19040;BMP180;9652;49.014;12.052;2024-03-23T13:05:07;97125.00;;;14.80
19040;BMP180;9652;49.014;12.052;2024-03-23T13:07:34;97144.00;;;14.80
19040;BMP180;9652;49.014;12.052;2024-03-23T13:10:04;97118.00;;;14.80
19040;BMP180;9652;49.014;12.052;2024-03-23T13:12:31;97123.00;;;14.80
19040;BMP180;9652;49.014;12.052;2024-03-23T13:14:58;97113.00;;;14.80
19040;BMP180;9652;49.014;12.052;2024-03-23T13:17:25;97146.00;;;14.90
19040;BMP180;9652;49.014;12.052;2024-03-23T13:19:54;97134.00;;;15.00
19040;BMP180;9652;49.014;12.052;2024-03-23T13:22:22;96999.00;;;15.10
19040;BMP180;9652;49.014;12.052;2024-03-23T13:24:49;97025.00;;;15.10
19040;BMP180;9652;49.014;12.052;2024-03-23T13:27:16;97121.00;;;15.20
19040;BMP180;9652;49.014;12.052;2024-03-23T13:29:44;97135.00;;;15.10
19040;BMP180;9652;49.014;12.052;2024-03-23T13:32:13;97053.00;;;15.10
19040;BMP180;9652;49.014;12.052;2024-03-23T13:34:40;97146.00;;;15.10
19040;BMP180;9652;49.014;12.052;2024-03-23T13:37:06;97154.00;;;15.00
19040;BMP180;9652;49.014;12.052;2024-03-23T13:39:37;97137.00;;;14.90
19040;BMP180;9652;49.014;12.052;2024-03-23T13:42:03;97142.00;;;14.90
19040;BMP180;9652;49.014;12.052;2024-03-23T13:44:31;97144.00;;;14.80
19040;BMP180;9652;49.014;12.052;2024-03-23T13:46:57;97157.00;;;14.70
19040;BMP180;9652;49.014;12.052;2024-03-23T13:49:26;97164.00;;;14.60
19040;BMP180;9652;49.014;12.052;2024-03-23T13:51:53;97166.00;;;14.50
19040;BMP180;9652;49.014;12.052;2024-03-23T13:54:21;97160.00;;;14.40
19040;BMP180;9652;49.014;12.052;2024-03-23T13:56:50;97148.00;;;14.30
19040;BMP180;9652;49.014;12.052;2024-03-23T13:59:17;97166.00;;;14.20
19040;BMP180;9652;49.014;12.052;2024-03-23T14:01:43;97155.00;;;14.20
19040;BMP180;9652;49.014;12.052;2024-03-23T14:04:11;97148.00;;;14.10
19040;BMP180;9652;49.014;12.052;2024-03-23T14:06:37;97160.00;;;14.00
19040;BMP180;9652;49.014;12.052;2024-03-23T14:09:05;97135.00;;;14.00
19040;BMP180;9652;49.014;12.052;2024-03-23T14:11:31;97117.00;;;14.10
19040;BMP180;9652;49.014;12.052;2024-03-23T14:13:59;97155.00;;;14.10
19040;BMP180;9652;49.014;12.052;2024-03-23T14:16:26;97142.00;;;14.20
19040;BMP180;9652;49.014;12.052;2024-03-23T14:18:53;97142.00;;;14.30
19040;BMP180;9652;49.014;12.052;2024-03-23T14:21:19;97140.00;;;14.30
19040;BMP180;9652;49.014;12.052;2024-03-23T14:23:46;97150.00;;;14.40
19040;BMP180;9652;49.014;12.052;2024-03-23T14:26:12;97147.00;;;14.50
19040;BMP180;9652;49.014;12.052;2024-03-23T14:28:39;97151.00;;;14.60
19040;BMP180;9652;49.014;12.052;2024-03-23T14:31:08;97117.00;;;14.60
19040;BMP180;9652;49.014;12.052;2024-03-23T14:33:36;97148.00;;;14.70
19040;BMP180;9652;49.014;12.052;2024-03-23T14:36:04;97097.00;;;14.60
19040;BMP180;9652;49.014;12.052;2024-03-23T14:38:32;97133.00;;;14.70
19040;BMP180;9652;49.014;12.052;2024-03-23T14:40:59;97145.00;;;14.70
19040;BMP180;9652;49.014;12.052;2024-03-23T14:43:27;97131.00;;;14.70
19040;BMP180;9652;49.014;12.052;2024-03-23T14:46:09;97100.00;;;14.70
19040;BMP180;9652;49.014;12.052;2024-03-23T14:48:37;97143.00;;;14.70
19040;BMP180;9652;49.014;12.052;2024-03-23T14:51:04;97142.00;;;14.70
19040;BMP180;9652;49.014;12.052;2024-03-23T14:53:32;97100.00;;;14.70
19040;BMP180;9652;49.014;12.052;2024-03-23T14:55:59;97111.00;;;14.60
19040;BMP180;9652;49.014;12.052;2024-03-23T14:58:29;97127.00;;;14.60
19040;BMP180;9652;49.014;12.052;2024-03-23T15:01:01;97113.00;;;14.50
19040;BMP180;9652;49.014;12.052;2024-03-23T15:03:32;97115.00;;;14.50
19040;BMP180;9652;49.014;12.052;2024-03-23T15:05:59;97123.00;;;14.50